createdAt,value
2018-02-24T00:00:41.363Z,-9.07
2018-02-24T00:01:41.347Z,-9.05
2018-02-24T00:02:41.335Z,-9.06
2018-02-24T00:03:41.390Z,-9.07
2018-02-24T00:04:41.526Z,-9.09
2018-02-24T00:05:41.343Z,-8.99
2018-02-24T00:06:41.354Z,-9.03
2018-02-24T00:07:41.358Z,-9.03
2018-02-24T00:08:41.514Z,-9.03
2018-02-24T00:09:41.519Z,-9.01
2018-02-24T00:10:41.522Z,-9.09
2018-02-24T00:11:41.585Z,-8.97
2018-02-24T00:12:41.530Z,-9.03
2018-02-24T00:13:41.518Z,-9.03
2018-02-24T00:14:41.688Z,-8.98
2018-02-24T00:15:41.523Z,-9.02
2018-02-24T00:16:41.544Z,-9.09
2018-02-24T00:17:41.526Z,-9.1
2018-02-24T00:18:41.535Z,-9.06
2018-02-24T00:19:41.540Z,-9.08
2018-02-24T00:20:41.768Z,-9.05
2018-02-24T00:21:41.382Z,-8.98
2018-02-24T00:22:41.375Z,-9.04
2018-02-24T00:23:41.390Z,-9.02
2018-02-24T00:24:41.407Z,-9.03
2018-02-24T00:25:41.407Z,-9
2018-02-24T00:26:41.582Z,-9.01
2018-02-24T00:27:41.580Z,-8.98
2018-02-24T00:28:41.407Z,-8.99
2018-02-24T00:29:41.423Z,-9
2018-02-24T00:30:41.564Z,-8.99
2018-02-24T00:31:41.614Z,-9.01
2018-02-24T00:32:41.582Z,-9.01
2018-02-24T00:33:41.593Z,-9.02
2018-02-24T00:34:41.604Z,-8.98
2018-02-24T00:35:41.595Z,-9.04
2018-02-24T00:36:41.914Z,-8.99
2018-02-24T00:37:41.603Z,-9.03
2018-02-24T00:38:41.443Z,-9.03
2018-02-24T00:39:41.623Z,-9.05
2018-02-24T00:40:41.474Z,-9.02
2018-02-24T00:41:41.495Z,-9.02
2018-02-24T00:42:41.466Z,-9.02
2018-02-24T00:43:41.469Z,-9.06
2018-02-24T00:44:41.477Z,-9.05
2018-02-24T00:45:41.494Z,-9.1
2018-02-24T00:46:41.510Z,-9.12
2018-02-24T00:47:41.489Z,-9.13
2018-02-24T00:48:41.489Z,-9.1
2018-02-24T00:49:41.497Z,-9.09
2018-02-24T00:50:41.498Z,-9.03
2018-02-24T00:51:41.496Z,-9.01
2018-02-24T00:52:41.498Z,-9.05
2018-02-24T00:53:41.511Z,-9.09
2018-02-24T00:54:41.526Z,-9.03
2018-02-24T00:55:41.514Z,-9.08
2018-02-24T00:56:41.525Z,-9.07
2018-02-24T00:57:41.524Z,-9.07
2018-02-24T00:58:41.530Z,-9.09
2018-02-24T00:59:41.514Z,-9.14
2018-02-24T01:00:41.519Z,-9.12
2018-02-24T01:01:41.530Z,-9.13
2018-02-24T01:02:41.517Z,-9.14
2018-02-24T01:03:41.524Z,-9.09
2018-02-24T01:04:41.534Z,-9.08
2018-02-24T01:05:41.535Z,-9.11
2018-02-24T01:06:41.545Z,-9.09
2018-02-24T01:07:41.555Z,-9.06
2018-02-24T01:08:41.554Z,-9.05
2018-02-24T01:09:41.564Z,-9.09
2018-02-24T01:10:41.548Z,-9.07
2018-02-24T01:11:41.633Z,-9.12
2018-02-24T01:12:41.561Z,-9.14
2018-02-24T01:13:41.560Z,-9.07
2018-02-24T01:14:41.568Z,-9.11
2018-02-24T01:15:41.743Z,-9.1
2018-02-24T01:16:41.728Z,-9.08
2018-02-24T01:17:41.748Z,-9.07
2018-02-24T01:18:41.777Z,-9.12
2018-02-24T01:19:41.754Z,-9.14
2018-02-24T01:20:41.796Z,-9.08
2018-02-24T01:21:41.604Z,-9.08
2018-02-24T01:22:41.769Z,-9.1
2018-02-24T01:23:41.772Z,-9.14
2018-02-24T01:24:41.769Z,-9.12
2018-02-24T01:25:41.786Z,-9.07
2018-02-24T01:26:41.778Z,-9.04
2018-02-24T01:27:41.636Z,-9.11
2018-02-24T01:28:41.635Z,-9.17
2018-02-24T01:29:41.834Z,-9.13
2018-02-24T01:30:41.668Z,-9.14
2018-02-24T01:31:41.811Z,-9.13
2018-02-24T01:32:41.640Z,-9.1
2018-02-24T01:33:41.648Z,-9.1
2018-02-24T01:34:41.645Z,-9.07
2018-02-24T01:35:42.036Z,-9.06
2018-02-24T01:36:41.658Z,-9.06
2018-02-24T01:37:41.649Z,-9.06
2018-02-24T01:38:41.655Z,-9.1
2018-02-24T01:39:41.649Z,-9.09
2018-02-24T01:40:41.962Z,-9.04
2018-02-24T01:41:41.661Z,-9.07
2018-02-24T01:42:41.661Z,-9.06
2018-02-24T01:43:41.686Z,-9.02
2018-02-24T01:44:41.682Z,-9.04
2018-02-24T01:45:41.709Z,-9.09
2018-02-24T01:46:41.724Z,-9.1
2018-02-24T01:47:41.845Z,-9.09
2018-02-24T01:48:41.843Z,-9.11
2018-02-24T01:49:41.853Z,-9.07
2018-02-24T01:50:41.887Z,-9.09
2018-02-24T01:51:41.699Z,-9.06
2018-02-24T01:52:41.699Z,-9.09
2018-02-24T01:53:41.698Z,-9.04
2018-02-24T01:54:41.714Z,-9.09
2018-02-24T01:55:41.741Z,-9.02
2018-02-24T01:56:41.717Z,-9.07
2018-02-24T01:57:41.734Z,-9.1
2018-02-24T01:58:41.733Z,-9.07
2018-02-24T01:59:41.719Z,-9.12
2018-02-24T02:00:41.734Z,-9.05
2018-02-24T02:01:42.101Z,-9.11
2018-02-24T02:02:41.746Z,-9.12
2018-02-24T02:03:41.737Z,-9.08
2018-02-24T02:04:41.747Z,-9.09
2018-02-24T02:05:41.736Z,-9.06
2018-02-24T02:06:41.785Z,-9.12
2018-02-24T02:07:41.760Z,-9.13
2018-02-24T02:08:41.759Z,-9.11
2018-02-24T02:09:41.770Z,-9.15
2018-02-24T02:10:41.774Z,-9.16
2018-02-24T02:11:41.792Z,-9.13
2018-02-24T02:12:41.764Z,-9.13
2018-02-24T02:13:41.835Z,-9.11
2018-02-24T02:14:41.773Z,-9.11
2018-02-24T02:15:41.779Z,-9.12
2018-02-24T02:16:41.886Z,-9.16
2018-02-24T02:17:41.843Z,-9.12
2018-02-24T02:18:41.792Z,-9.12
2018-02-24T02:19:41.788Z,-9.14
2018-02-24T02:20:41.799Z,-9.12
2018-02-24T02:21:41.793Z,-9.22
2018-02-24T02:22:41.796Z,-9.22
2018-02-24T02:23:41.818Z,-9.2
2018-02-24T02:24:41.803Z,-9.21
2018-02-24T02:25:41.809Z,-9.14
2018-02-24T02:26:41.974Z,-9.18
2018-02-24T02:27:41.996Z,-9.16
2018-02-24T02:28:41.969Z,-9.11
2018-02-24T02:29:41.806Z,-9.15
2018-02-24T02:30:41.982Z,-9.19
2018-02-24T02:31:41.976Z,-9.18
2018-02-24T02:32:41.995Z,-9.16
2018-02-24T02:33:41.983Z,-9.1
2018-02-24T02:34:42.023Z,-9.13
2018-02-24T02:35:41.991Z,-9.16
2018-02-24T02:36:41.848Z,-9.2
2018-02-24T02:37:41.843Z,-9.18
2018-02-24T02:38:42.027Z,-9.2
2018-02-24T02:39:42.011Z,-9.18
2018-02-24T02:40:41.853Z,-9.2
2018-02-24T02:41:41.870Z,-9.16
2018-02-24T02:42:41.890Z,-9.2
2018-02-24T02:43:41.883Z,-9.27
2018-02-24T02:44:41.870Z,-9.23
2018-02-24T02:45:41.887Z,-9.23
2018-02-24T02:46:41.865Z,-9.22
2018-02-24T02:47:41.873Z,-9.22
2018-02-24T02:48:41.892Z,-9.22
2018-02-24T02:49:41.922Z,-9.19
2018-02-24T02:50:41.961Z,-9.21
2018-02-24T02:51:41.877Z,-9.21
2018-02-24T02:52:41.888Z,-9.18
2018-02-24T02:53:41.905Z,-9.17
2018-02-24T02:54:41.891Z,-9.18
2018-02-24T02:55:41.898Z,-9.18
2018-02-24T02:56:42.057Z,-9.16
2018-02-24T02:57:42.078Z,-9.23
2018-02-24T02:58:42.076Z,-9.21
2018-02-24T02:59:41.908Z,-9.18
2018-02-24T03:00:42.068Z,-9.23
2018-02-24T03:01:42.060Z,-9.24
2018-02-24T03:02:41.909Z,-9.24
2018-02-24T03:03:41.903Z,-9.21
2018-02-24T03:04:41.909Z,-9.29
2018-02-24T03:05:41.930Z,-9.26
2018-02-24T03:06:41.897Z,-9.26
2018-02-24T03:07:41.914Z,-9.25
2018-02-24T03:08:41.929Z,-9.22
2018-02-24T03:09:41.943Z,-9.24
2018-02-24T03:10:41.922Z,-9.22
2018-02-24T03:11:41.937Z,-9.21
2018-02-24T03:12:41.936Z,-9.18
2018-02-24T03:13:42.305Z,-9.23
2018-02-24T03:14:41.934Z,-9.18
2018-02-24T03:15:41.943Z,-9.18
2018-02-24T03:16:41.947Z,-9.22
2018-02-24T03:17:41.941Z,-9.28
2018-02-24T03:18:41.969Z,-9.26
2018-02-24T03:19:41.942Z,-9.24
2018-02-24T03:20:41.950Z,-9.2
2018-02-24T03:21:41.968Z,-9.27
2018-02-24T03:22:41.964Z,-9.25
2018-02-24T03:23:41.950Z,-9.27
2018-02-24T03:24:41.964Z,-9.27
2018-02-24T03:25:41.962Z,-9.23
2018-02-24T03:26:41.966Z,-9.22
2018-02-24T03:27:41.972Z,-9.23
2018-02-24T03:28:41.961Z,-9.26
2018-02-24T03:29:41.982Z,-9.29
2018-02-24T03:30:41.997Z,-9.25
2018-02-24T03:31:42.003Z,-9.24
2018-02-24T03:32:41.974Z,-9.26
2018-02-24T03:33:41.983Z,-9.25
2018-02-24T03:34:41.989Z,-9.27
2018-02-24T03:35:41.998Z,-9.28
2018-02-24T03:36:41.999Z,-9.28
2018-02-24T03:37:42.011Z,-9.31
2018-02-24T03:38:42.171Z,-9.31
2018-02-24T03:39:42.161Z,-9.24
2018-02-24T03:40:42.164Z,-9.31
2018-02-24T03:41:42.173Z,-9.29
2018-02-24T03:42:42.176Z,-9.3
2018-02-24T03:43:42.236Z,-9.31
2018-02-24T03:44:42.056Z,-9.3
2018-02-24T03:45:42.195Z,-9.31
2018-02-24T03:46:42.192Z,-9.36
2018-02-24T03:47:42.190Z,-9.36
2018-02-24T03:48:42.209Z,-9.29
2018-02-24T03:49:42.058Z,-9.31
2018-02-24T03:50:42.206Z,-9.32
2018-02-24T03:51:42.216Z,-9.26
2018-02-24T03:52:42.213Z,-9.33
2018-02-24T03:53:42.212Z,-9.34
2018-02-24T03:54:42.213Z,-9.28
2018-02-24T03:55:42.225Z,-9.28
2018-02-24T03:56:42.232Z,-9.22
2018-02-24T03:57:42.218Z,-9.34
2018-02-24T03:58:42.261Z,-9.26
2018-02-24T03:59:42.083Z,-9.35
2018-02-24T04:00:42.231Z,-9.37
2018-02-24T04:01:42.080Z,-9.38
2018-02-24T04:02:42.230Z,-9.36
2018-02-24T04:03:42.088Z,-9.32
2018-02-24T04:04:42.237Z,-9.39
2018-02-24T04:05:42.244Z,-9.39
2018-02-24T04:06:42.238Z,-9.38
2018-02-24T04:07:42.244Z,-9.37
2018-02-24T04:08:42.264Z,-9.41
2018-02-24T04:09:42.101Z,-9.37
2018-02-24T04:10:42.280Z,-9.35
2018-02-24T04:11:42.268Z,-9.36
2018-02-24T04:12:42.271Z,-9.36
2018-02-24T04:13:42.315Z,-9.4
2018-02-24T04:14:42.116Z,-9.36
2018-02-24T04:15:42.120Z,-9.42
2018-02-24T04:16:42.110Z,-9.38
2018-02-24T04:17:42.130Z,-9.37
2018-02-24T04:18:42.151Z,-9.39
2018-02-24T04:19:42.132Z,-9.34
2018-02-24T04:20:42.140Z,-9.36
2018-02-24T04:21:42.148Z,-9.32
2018-02-24T04:22:42.152Z,-9.25
2018-02-24T04:23:42.295Z,-9.34
2018-02-24T04:24:42.145Z,-9.35
2018-02-24T04:25:42.132Z,-9.36
2018-02-24T04:26:42.148Z,-9.32
2018-02-24T04:27:42.134Z,-9.36
2018-02-24T04:28:42.290Z,-9.38
2018-02-24T04:29:42.184Z,-9.41
2018-02-24T04:30:42.155Z,-9.39
2018-02-24T04:31:42.149Z,-9.4
2018-02-24T04:32:42.153Z,-9.4
2018-02-24T04:33:42.154Z,-9.43
2018-02-24T04:34:42.177Z,-9.4
2018-02-24T04:35:42.159Z,-9.45
2018-02-24T04:36:42.160Z,-9.41
2018-02-24T04:37:42.165Z,-9.38
2018-02-24T04:38:42.171Z,-9.41
2018-02-24T04:39:42.198Z,-9.44
2018-02-24T04:40:42.217Z,-9.43
2018-02-24T04:41:42.176Z,-9.39
2018-02-24T04:42:42.181Z,-9.46
2018-02-24T04:43:42.184Z,-9.41
2018-02-24T04:44:42.191Z,-9.45
2018-02-24T04:45:42.183Z,-9.45
2018-02-24T04:46:42.244Z,-9.4
2018-02-24T04:47:42.195Z,-9.41
2018-02-24T04:48:42.205Z,-9.43
2018-02-24T04:49:42.472Z,-9.47
2018-02-24T04:50:42.366Z,-9.49
2018-02-24T04:51:42.349Z,-9.51
2018-02-24T04:52:42.359Z,-9.51
2018-02-24T04:53:42.394Z,-9.46
2018-02-24T04:54:42.381Z,-9.54
2018-02-24T04:55:42.353Z,-9.54
2018-02-24T04:56:42.349Z,-9.53
2018-02-24T04:57:42.216Z,-9.52
2018-02-24T04:58:42.208Z,-9.58
2018-02-24T04:59:42.236Z,-9.61
2018-02-24T05:00:42.438Z,-9.57
2018-02-24T05:01:42.380Z,-9.57
2018-02-24T05:02:42.608Z,-9.58
2018-02-24T05:03:42.425Z,-9.56
2018-02-24T05:04:42.395Z,-9.61
2018-02-24T05:05:42.398Z,-9.64
2018-02-24T05:06:42.393Z,-9.64
2018-02-24T05:07:42.417Z,-9.59
2018-02-24T05:08:42.480Z,-9.62
2018-02-24T05:09:42.247Z,-9.61
2018-02-24T05:10:42.248Z,-9.6
2018-02-24T05:11:42.303Z,-9.62
2018-02-24T05:12:42.280Z,-9.62
2018-02-24T05:13:42.272Z,-9.6
2018-02-24T05:14:42.263Z,-9.61
2018-02-24T05:15:42.295Z,-9.61
2018-02-24T05:16:42.273Z,-9.64
2018-02-24T05:17:42.520Z,-9.64
2018-02-24T05:18:42.285Z,-9.59
2018-02-24T05:19:42.276Z,-9.63
2018-02-24T05:20:42.302Z,-9.72
2018-02-24T05:21:42.285Z,-9.72
2018-02-24T05:22:42.317Z,-9.71
2018-02-24T05:23:42.289Z,-9.7
2018-02-24T05:24:42.297Z,-9.71
2018-02-24T05:25:42.311Z,-9.71
2018-02-24T05:26:42.298Z,-9.66
2018-02-24T05:27:42.308Z,-9.69
2018-02-24T05:28:42.324Z,-9.73
2018-02-24T05:29:42.305Z,-9.74
2018-02-24T05:30:42.348Z,-9.72
2018-02-24T05:31:42.576Z,-9.76
2018-02-24T05:32:42.578Z,-9.74
2018-02-24T05:33:42.324Z,-9.79
2018-02-24T05:34:42.320Z,-9.77
2018-02-24T05:35:42.312Z,-9.79
2018-02-24T05:36:42.322Z,-9.77
2018-02-24T05:37:42.360Z,-9.8
2018-02-24T05:38:42.322Z,-9.79
2018-02-24T05:39:42.361Z,-9.77
2018-02-24T05:40:42.328Z,-9.75
2018-02-24T05:41:42.333Z,-9.74
2018-02-24T05:42:42.334Z,-9.74
2018-02-24T05:43:42.342Z,-9.73
2018-02-24T05:44:42.342Z,-9.74
2018-02-24T05:45:42.360Z,-9.75
2018-02-24T05:46:42.341Z,-9.79
2018-02-24T05:47:42.343Z,-9.72
2018-02-24T05:48:42.367Z,-9.83
2018-02-24T05:49:42.340Z,-9.84
2018-02-24T05:50:42.351Z,-9.83
2018-02-24T05:51:42.387Z,-9.85
2018-02-24T05:52:42.361Z,-9.82
2018-02-24T05:53:42.384Z,-9.81
2018-02-24T05:54:42.385Z,-9.78
2018-02-24T05:55:42.380Z,-9.78
2018-02-24T05:56:42.453Z,-9.76
2018-02-24T05:57:42.378Z,-9.75
2018-02-24T05:58:42.418Z,-9.75
2018-02-24T05:59:42.439Z,-9.78
2018-02-24T06:00:42.393Z,-9.74
2018-02-24T06:01:42.575Z,-9.79
2018-02-24T06:02:42.574Z,-9.81
2018-02-24T06:03:42.570Z,-9.81
2018-02-24T06:04:42.572Z,-9.83
2018-02-24T06:05:42.570Z,-9.83
2018-02-24T06:06:42.598Z,-9.87
2018-02-24T06:07:42.596Z,-9.88
2018-02-24T06:08:42.606Z,-9.89
2018-02-24T06:09:42.621Z,-9.86
2018-02-24T06:10:42.607Z,-9.85
2018-02-24T06:11:42.611Z,-9.89
2018-02-24T06:12:42.610Z,-9.85
2018-02-24T06:13:42.621Z,-9.86
2018-02-24T06:14:42.675Z,-9.9
2018-02-24T06:15:42.615Z,-9.89
2018-02-24T06:16:42.695Z,-9.92
2018-02-24T06:17:42.668Z,-9.86
2018-02-24T06:18:42.618Z,-9.93
2018-02-24T06:19:42.661Z,-9.91
2018-02-24T06:20:42.630Z,-9.91
2018-02-24T06:21:42.485Z,-9.92
2018-02-24T06:22:42.636Z,-9.92
2018-02-24T06:23:42.637Z,-9.92
2018-02-24T06:24:42.644Z,-9.96
2018-02-24T06:25:42.648Z,-9.96
2018-02-24T06:26:42.654Z,-9.97
2018-02-24T06:27:42.700Z,-9.9
2018-02-24T06:28:42.634Z,-9.98
2018-02-24T06:29:42.496Z,-10
2018-02-24T06:30:42.499Z,-10
2018-02-24T06:31:42.662Z,-10.01
2018-02-24T06:32:42.668Z,-9.99
2018-02-24T06:33:42.663Z,-9.99
2018-02-24T06:34:42.665Z,-9.93
2018-02-24T06:35:42.698Z,-9.94
2018-02-24T06:36:42.677Z,-9.97
2018-02-24T06:37:42.524Z,-10
2018-02-24T06:38:42.531Z,-10
2018-02-24T06:39:42.709Z,-9.98
2018-02-24T06:40:42.547Z,-10
2018-02-24T06:41:42.562Z,-10.04
2018-02-24T06:42:42.581Z,-10.02
2018-02-24T06:43:42.562Z,-10.02
2018-02-24T06:44:42.585Z,-10.02
2018-02-24T06:45:42.619Z,-10.03
2018-02-24T06:46:42.617Z,-10.03
2018-02-24T06:47:42.588Z,-10.05
2018-02-24T06:48:42.768Z,-10.01
2018-02-24T06:49:42.616Z,-10.03
2018-02-24T06:50:42.595Z,-10.01
2018-02-24T06:51:42.603Z,-10.01
2018-02-24T06:52:42.626Z,-10.01
2018-02-24T06:53:42.605Z,-10.05
2018-02-24T06:54:42.914Z,-10.08
2018-02-24T06:55:42.768Z,-10.07
2018-02-24T06:56:42.619Z,-10.07
2018-02-24T06:57:42.621Z,-10.09
2018-02-24T06:58:42.624Z,-10.06
2018-02-24T06:59:42.628Z,-10.09
2018-02-24T07:00:42.821Z,-10.07
2018-02-24T07:01:42.630Z,-10
2018-02-24T07:02:42.656Z,-10
2018-02-24T07:03:42.654Z,-10.01
2018-02-24T07:04:42.669Z,-10.01
2018-02-24T07:05:42.650Z,-10.09
2018-02-24T07:06:42.676Z,-10.06
2018-02-24T07:07:42.644Z,-10.07
2018-02-24T07:08:42.689Z,-10.07
2018-02-24T07:09:42.674Z,-10.14
2018-02-24T07:10:42.685Z,-10.15
2018-02-24T07:11:42.663Z,-10.08
2018-02-24T07:12:42.676Z,-10.09
2018-02-24T07:13:42.913Z,-10.13
2018-02-24T07:14:42.833Z,-10.09
2018-02-24T07:15:42.832Z,-10.11
2018-02-24T07:16:42.855Z,-10.17
2018-02-24T07:17:42.840Z,-10.16
2018-02-24T07:18:42.856Z,-10.1
2018-02-24T07:19:42.917Z,-10.15
2018-02-24T07:20:42.858Z,-10.17
2018-02-24T07:21:42.873Z,-10.2
2018-02-24T07:22:42.897Z,-10.26
2018-02-24T07:23:42.869Z,-10.16
2018-02-24T07:24:42.740Z,-10.21
2018-02-24T07:25:42.713Z,-10.2
2018-02-24T07:26:42.934Z,-10.16
2018-02-24T07:27:42.887Z,-10.14
2018-02-24T07:28:42.726Z,-10.2
2018-02-24T07:29:42.888Z,-10.16
2018-02-24T07:30:42.731Z,-10.35
2018-02-24T07:31:42.746Z,-10.27
2018-02-24T07:32:42.758Z,-10.23
2018-02-24T07:33:42.769Z,-10.15
2018-02-24T07:34:42.739Z,-10.25
2018-02-24T07:35:42.767Z,-10.13
2018-02-24T07:36:42.756Z,-10.12
2018-02-24T07:37:42.824Z,-10.12
2018-02-24T07:38:42.761Z,-10.18
2018-02-24T07:39:42.765Z,-10.21
2018-02-24T07:40:42.759Z,-10.24
2018-02-24T07:41:42.765Z,-10.28
2018-02-24T07:42:42.764Z,-10.19
2018-02-24T07:43:42.756Z,-10.22
2018-02-24T07:44:42.981Z,-10.1
2018-02-24T07:45:42.800Z,-10.28
2018-02-24T07:46:42.936Z,-10.31
2018-02-24T07:47:42.933Z,-10.28
2018-02-24T07:48:42.779Z,-10.3
2018-02-24T07:49:42.777Z,-10.31
2018-02-24T07:50:42.781Z,-10.3
2018-02-24T07:51:42.799Z,-10.3
2018-02-24T07:52:42.800Z,-10.35
2018-02-24T07:53:42.802Z,-10.39
2018-02-24T07:54:42.803Z,-10.39
2018-02-24T07:55:43.066Z,-10.4
2018-02-24T07:56:42.794Z,-10.37
2018-02-24T07:57:42.804Z,-10.33
2018-02-24T07:58:42.812Z,-10.42
2018-02-24T07:59:42.826Z,-10.34
2018-02-24T08:00:42.839Z,-10.39
2018-02-24T08:01:42.815Z,-10.39
2018-02-24T08:02:42.883Z,-10.37
2018-02-24T08:03:42.829Z,-10.1
2018-02-24T08:04:43.023Z,-10.23
2018-02-24T08:05:42.871Z,-10.38
2018-02-24T08:06:42.847Z,-10.38
2018-02-24T08:07:42.863Z,-10.4
2018-02-24T08:08:42.867Z,-10.3
2018-02-24T08:09:42.863Z,-10.23
2018-02-24T08:10:42.869Z,-10.34
2018-02-24T08:11:42.878Z,-10.37
2018-02-24T08:12:42.893Z,-10.46
2018-02-24T08:13:42.896Z,-10.44
2018-02-24T08:14:42.883Z,-10.48
2018-02-24T08:15:42.913Z,-10.4
2018-02-24T08:16:42.897Z,-10.43
2018-02-24T08:17:43.044Z,-10.32
2018-02-24T08:18:42.902Z,-10.35
2018-02-24T08:19:42.912Z,-10.4
2018-02-24T08:20:42.910Z,-10.28
2018-02-24T08:21:42.908Z,-10.44
2018-02-24T08:22:42.905Z,-10.59
2018-02-24T08:23:42.921Z,-10.49
2018-02-24T08:24:42.920Z,-10.48
2018-02-24T08:25:43.064Z,-10.47
2018-02-24T08:26:42.934Z,-10.5
2018-02-24T08:27:43.090Z,-10.49
2018-02-24T08:28:43.087Z,-10.55
2018-02-24T08:29:43.086Z,-10.65
2018-02-24T08:30:43.141Z,-10.58
2018-02-24T08:31:43.086Z,-10.6
2018-02-24T08:32:43.109Z,-10.55
2018-02-24T08:33:43.113Z,-10.54
2018-02-24T08:34:43.118Z,-10.61
2018-02-24T08:35:43.116Z,-10.66
2018-02-24T08:36:43.114Z,-10.51
2018-02-24T08:37:43.195Z,-10.44
2018-02-24T08:38:43.195Z,-10.51
2018-02-24T08:39:43.202Z,-10.46
2018-02-24T08:40:43.193Z,-10.54
2018-02-24T08:41:43.116Z,-10.48
2018-02-24T08:42:43.157Z,-10.49
2018-02-24T08:43:42.967Z,-10.54
2018-02-24T08:44:42.961Z,-10.45
2018-02-24T08:45:42.966Z,-10.42
2018-02-24T08:46:42.987Z,-10.49
2018-02-24T08:47:42.980Z,-10.65
2018-02-24T08:48:42.985Z,-10.54
2018-02-24T08:49:43.156Z,-10.46
2018-02-24T08:50:43.050Z,-10.43
2018-02-24T08:51:43.049Z,-10.33
2018-02-24T08:52:43.031Z,-10.41
2018-02-24T08:53:43.016Z,-10.46
2018-02-24T08:54:43.002Z,-10.47
2018-02-24T08:55:43.004Z,-10.45
2018-02-24T08:56:43.019Z,-10.51
2018-02-24T08:57:43.004Z,-10.53
2018-02-24T08:58:43.017Z,-10.52
2018-02-24T08:59:43.037Z,-10.47
2018-02-24T09:00:43.023Z,-10.64
2018-02-24T09:01:43.050Z,-10.55
2018-02-24T09:02:43.034Z,-10.47
2018-02-24T09:03:43.025Z,-10.49
2018-02-24T09:04:43.022Z,-10.48
2018-02-24T09:05:43.014Z,-10.5
2018-02-24T09:06:43.193Z,-10.47
2018-02-24T09:07:43.024Z,-10.44
2018-02-24T09:08:43.050Z,-10.28
2018-02-24T09:09:43.012Z,-10.42
2018-02-24T09:10:43.037Z,-10.48
2018-02-24T09:11:43.070Z,-10.51
2018-02-24T09:12:43.022Z,-10.56
2018-02-24T09:13:43.021Z,-10.48
2018-02-24T09:14:43.021Z,-10.64
2018-02-24T09:15:43.125Z,-10.55
2018-02-24T09:16:43.103Z,-10.63
2018-02-24T09:17:43.698Z,-10.65
2018-02-24T09:18:43.122Z,-10.52
2018-02-24T09:19:43.278Z,-10.46
2018-02-24T09:20:43.083Z,-10.53
2018-02-24T09:21:43.054Z,-10.52
2018-02-24T09:22:43.052Z,-10.68
2018-02-24T09:23:43.033Z,-10.6
2018-02-24T09:24:43.043Z,-10.63
2018-02-24T09:25:43.064Z,-10.74
2018-02-24T09:26:43.076Z,-10.78
2018-02-24T09:27:43.063Z,-10.8
2018-02-24T09:28:43.059Z,-10.73
2018-02-24T09:29:43.119Z,-10.69
2018-02-24T09:30:43.065Z,-10.82
2018-02-24T09:31:43.088Z,-10.83
2018-02-24T09:32:43.096Z,-10.84
2018-02-24T09:33:43.136Z,-10.83
2018-02-24T09:34:43.080Z,-10.94
2018-02-24T09:35:43.094Z,-10.88
2018-02-24T09:36:43.268Z,-10.78
2018-02-24T09:37:43.270Z,-10.85
2018-02-24T09:38:43.518Z,-10.99
2018-02-24T09:39:43.279Z,-10.91
2018-02-24T09:40:43.288Z,-10.93
2018-02-24T09:41:43.258Z,-10.86
2018-02-24T09:42:43.260Z,-10.7
2018-02-24T09:43:43.310Z,-10.76
2018-02-24T09:44:43.275Z,-10.61
2018-02-24T09:45:43.281Z,-10.57
2018-02-24T09:46:43.138Z,-10.73
2018-02-24T09:47:43.278Z,-10.72
2018-02-24T09:48:43.168Z,-10.82
2018-02-24T09:49:43.292Z,-10.73
2018-02-24T09:50:43.128Z,-10.64
2018-02-24T09:51:43.294Z,-10.78
2018-02-24T09:52:43.289Z,-10.62
2018-02-24T09:53:43.127Z,-10.63
2018-02-24T09:54:43.294Z,-10.57
2018-02-24T09:55:43.362Z,-10.65
2018-02-24T09:56:43.298Z,-10.6
2018-02-24T09:57:43.303Z,-10.5
2018-02-24T09:58:43.621Z,-10.64
2018-02-24T09:59:43.306Z,-10.66
2018-02-24T10:00:43.171Z,-10.57
2018-02-24T10:01:43.318Z,-10.67
2018-02-24T10:02:43.166Z,-10.67
2018-02-24T10:03:43.165Z,-10.63
2018-02-24T10:04:43.302Z,-10.55
2018-02-24T10:05:43.316Z,-10.5
2018-02-24T10:06:43.143Z,-10.75
2018-02-24T10:07:43.146Z,-10.55
2018-02-24T10:08:43.331Z,-10.69
2018-02-24T10:09:43.152Z,-10.63
2018-02-24T10:10:43.183Z,-10.59
2018-02-24T10:11:43.165Z,-10.74
2018-02-24T10:12:43.180Z,-10.67
2018-02-24T10:13:43.167Z,-10.77
2018-02-24T10:14:43.176Z,-10.72
2018-02-24T10:15:43.207Z,-10.5
2018-02-24T10:16:43.185Z,-10.43
2018-02-24T10:17:43.206Z,-10.34
2018-02-24T10:18:43.190Z,-10.42
2018-02-24T10:19:43.209Z,-10.41
2018-02-24T10:20:43.257Z,-10.52
2018-02-24T10:21:43.211Z,-10.5
2018-02-24T10:22:43.207Z,-10.48
2018-02-24T10:23:43.225Z,-10.36
2018-02-24T10:24:43.209Z,-10.36
2018-02-24T10:25:43.207Z,-10.21
2018-02-24T10:26:43.220Z,-10.47
2018-02-24T10:27:43.226Z,-10.44
2018-02-24T10:28:43.227Z,-10.57
2018-02-24T10:29:43.221Z,-10.4
2018-02-24T10:30:43.247Z,-10.37
2018-02-24T10:31:43.254Z,-10.24
2018-02-24T10:32:43.242Z,-10.24
2018-02-24T10:33:43.238Z,-10.3
2018-02-24T10:34:43.247Z,-10.35
2018-02-24T10:35:43.238Z,-10.23
2018-02-24T10:36:43.236Z,-10.34
2018-02-24T10:37:43.274Z,-10.38
2018-02-24T10:38:43.265Z,-10.27
2018-02-24T10:39:43.257Z,-9.95
2018-02-24T10:40:43.249Z,-9.82
2018-02-24T10:41:43.287Z,-10.03
2018-02-24T10:42:43.273Z,-10.32
2018-02-24T10:43:43.269Z,-10.37
2018-02-24T10:44:43.433Z,-10.29
2018-02-24T10:45:43.278Z,-10.28
2018-02-24T10:46:43.282Z,-10.25
2018-02-24T10:47:43.443Z,-10.17
2018-02-24T10:48:43.454Z,-10.01
2018-02-24T10:49:43.462Z,-10.16
2018-02-24T10:50:44.449Z,-10.1
2018-02-24T10:51:43.336Z,-10.02
2018-02-24T10:52:43.498Z,-10.23
2018-02-24T10:53:43.309Z,-10.16
2018-02-24T10:54:43.478Z,-10.44
2018-02-24T10:55:43.323Z,-10.53
2018-02-24T10:56:43.356Z,-10.3
2018-02-24T10:57:43.566Z,-10.31
2018-02-24T10:58:43.319Z,-10.3
2018-02-24T10:59:43.489Z,-10.43
2018-02-24T11:00:43.356Z,-10.47
2018-02-24T11:01:43.341Z,-10.37
2018-02-24T11:02:43.669Z,-10.58
2018-02-24T11:03:43.502Z,-10.57
2018-02-24T11:04:44.638Z,-10.73
2018-02-24T11:05:43.423Z,-10.73
2018-02-24T11:06:43.361Z,-10.39
2018-02-24T11:07:43.359Z,-10.25
2018-02-24T11:08:43.650Z,-10.47
2018-02-24T11:09:43.529Z,-10.56
2018-02-24T11:10:43.369Z,-10.62
2018-02-24T11:11:43.552Z,-10.6
2018-02-24T11:12:45.065Z,-10.38
2018-02-24T11:13:43.403Z,-10.38
2018-02-24T11:14:43.553Z,-10.29
2018-02-24T11:15:43.422Z,-10.23
2018-02-24T11:16:43.478Z,-10.41
2018-02-24T11:17:43.658Z,-10.31
2018-02-24T11:18:43.417Z,-10.24
2018-02-24T11:19:43.843Z,-10.29
2018-02-24T11:20:43.460Z,-10.49
2018-02-24T11:21:43.436Z,-10.44
2018-02-24T11:22:43.424Z,-10.56
2018-02-24T11:23:43.440Z,-10.21
2018-02-24T11:24:43.459Z,-10.64
2018-02-24T11:25:43.425Z,-10.6
2018-02-24T11:26:43.487Z,-10.37
2018-02-24T11:27:43.592Z,-10.3
2018-02-24T11:28:43.432Z,-10.41
2018-02-24T11:29:43.456Z,-10.34
2018-02-24T11:30:43.447Z,-10.44
2018-02-24T11:31:43.447Z,-10.47
2018-02-24T11:32:43.485Z,-10.37
2018-02-24T11:33:43.501Z,-10.68
2018-02-24T11:34:43.440Z,-10.38
2018-02-24T11:35:43.457Z,-10.31
2018-02-24T11:36:43.488Z,-10.3
2018-02-24T11:37:43.462Z,-10.17
2018-02-24T11:38:43.470Z,-10.08
2018-02-24T11:39:43.468Z,-10.19
2018-02-24T11:40:43.466Z,-10.25
2018-02-24T11:41:43.477Z,-10.44
2018-02-24T11:42:43.466Z,-10.3
2018-02-24T11:43:43.470Z,-10.4
2018-02-24T11:44:43.491Z,-10.38
2018-02-24T11:45:43.489Z,-10.32
2018-02-24T11:46:43.491Z,-10.15
2018-02-24T11:47:43.518Z,-10
2018-02-24T11:48:43.646Z,-10.3
2018-02-24T11:49:43.483Z,-10.27
2018-02-24T11:50:43.488Z,-10.27
2018-02-24T11:51:43.496Z,-10.26
2018-02-24T11:52:43.533Z,-10.17
2018-02-24T11:53:43.508Z,-10.12
2018-02-24T11:54:43.515Z,-9.81
2018-02-24T11:55:43.521Z,-9.9
2018-02-24T11:56:43.708Z,-9.94
2018-02-24T11:57:43.565Z,-9.59
2018-02-24T11:58:43.529Z,-9.93
2018-02-24T11:59:43.535Z,-9.88
2018-02-24T12:00:43.540Z,-9.84
2018-02-24T12:01:43.693Z,-9.88
2018-02-24T12:02:43.709Z,-10.03
2018-02-24T12:03:43.693Z,-10.02
2018-02-24T12:04:43.737Z,-10.05
2018-02-24T12:05:43.539Z,-9.97
2018-02-24T12:06:43.711Z,-10.15
2018-02-24T12:07:43.693Z,-10.13
2018-02-24T12:08:43.550Z,-10.02
2018-02-24T12:09:43.743Z,-9.91
2018-02-24T12:10:43.573Z,-10.03
2018-02-24T12:11:43.545Z,-9.91
2018-02-24T12:12:43.555Z,-9.89
2018-02-24T12:13:43.785Z,-9.85
2018-02-24T12:14:43.574Z,-9.85
2018-02-24T12:15:43.723Z,-9.71
2018-02-24T12:16:43.566Z,-10
2018-02-24T12:17:43.703Z,-9.88
2018-02-24T12:18:43.549Z,-9.72
2018-02-24T12:19:43.719Z,-9.73
2018-02-24T12:20:43.593Z,-9.93
2018-02-24T12:21:43.560Z,-9.79
2018-02-24T12:22:43.578Z,-9.56
2018-02-24T12:23:43.564Z,-9.74
2018-02-24T12:24:43.747Z,-9.63
2018-02-24T12:25:43.760Z,-9.55
2018-02-24T12:26:43.580Z,-9.65
2018-02-24T12:27:43.580Z,-9.61
2018-02-24T12:28:43.759Z,-9.72
2018-02-24T12:29:43.610Z,-9.98
2018-02-24T12:30:43.636Z,-9.73
2018-02-24T12:31:43.603Z,-9.66
2018-02-24T12:32:43.632Z,-9.66
2018-02-24T12:33:43.626Z,-9.77
2018-02-24T12:34:43.773Z,-9.59
2018-02-24T12:35:43.823Z,-9.68
2018-02-24T12:36:43.635Z,-9.98
2018-02-24T12:37:43.653Z,-10.04
2018-02-24T12:38:43.628Z,-9.82
2018-02-24T12:39:43.680Z,-9.75
2018-02-24T12:40:43.672Z,-9.9
2018-02-24T12:41:43.824Z,-9.73
2018-02-24T12:42:43.632Z,-9.98
2018-02-24T12:43:43.649Z,-9.71
2018-02-24T12:44:43.640Z,-9.7
2018-02-24T12:45:44.026Z,-9.67